sensor_id;sensor_type;location;lat;lon;timestamp;temperature;humidity
42907;DHT22;28552;51.146;6.576;2023-04-29T00:00:33;11.80;99.90
42907;DHT22;28552;51.146;6.576;2023-04-29T00:03:34;11.80;99.90
42907;DHT22;28552;51.146;6.576;2023-04-29T00:06:34;11.80;99.90
42907;DHT22;28552;51.146;6.576;2023-04-29T00:09:35;11.70;99.90
42907;DHT22;28552;51.146;6.576;2023-04-29T00:12:36;11.70;99.90
42907;DHT22;28552;51.146;6.576;2023-04-29T00:15:37;11.70;99.90
42907;DHT22;28552;51.146;6.576;2023-04-29T00:18:38;11.60;99.90
42907;DHT22;28552;51.146;6.576;2023-04-29T00:21:38;11.60;99.90
42907;DHT22;28552;51.146;6.576;2023-04-29T00:24:39;11.50;99.90
42907;DHT22;28552;51.146;6.576;2023-04-29T00:27:39;11.50;99.90
42907;DHT22;28552;51.146;6.576;2023-04-29T00:30:41;11.40;99.90
42907;DHT22;28552;51.146;6.576;2023-04-29T00:33:41;11.40;99.90
42907;DHT22;28552;51.146;6.576;2023-04-29T00:36:42;11.40;99.90
42907;DHT22;28552;51.146;6.576;2023-04-29T00:39:42;11.30;99.90
42907;DHT22;28552;51.146;6.576;2023-04-29T00:42:43;11.30;99.90
42907;DHT22;28552;51.146;6.576;2023-04-29T00:45:43;11.20;99.90
42907;DHT22;28552;51.146;6.576;2023-04-29T00:48:46;11.20;99.90
42907;DHT22;28552;51.146;6.576;2023-04-29T00:51:47;11.10;99.90
42907;DHT22;28552;51.146;6.576;2023-04-29T00:54:47;11.10;99.90
42907;DHT22;28552;51.146;6.576;2023-04-29T00:57:48;11.10;99.90
42907;DHT22;28552;51.146;6.576;2023-04-29T01:00:51;11.10;99.90
42907;DHT22;28552;51.146;6.576;2023-04-29T01:03:52;11.00;99.90
42907;DHT22;28552;51.146;6.576;2023-04-29T01:10:29;10.90;99.90
42907;DHT22;28552;51.146;6.576;2023-04-29T01:13:54;10.90;99.90
42907;DHT22;28552;51.146;6.576;2023-04-29T01:17:00;10.90;99.90
42907;DHT22;28552;51.146;6.576;2023-04-29T01:20:06;10.90;99.90
42907;DHT22;28552;51.146;6.576;2023-04-29T01:23:08;10.80;99.90
42907;DHT22;28552;51.146;6.576;2023-04-29T01:26:08;10.80;99.90
42907;DHT22;28552;51.146;6.576;2023-04-29T01:29:21;10.70;99.90
42907;DHT22;28552;51.146;6.576;2023-04-29T01:32:40;10.70;99.90
42907;DHT22;28552;51.146;6.576;2023-04-29T01:45:09;10.50;99.90
42907;DHT22;28552;51.146;6.576;2023-04-29T01:48:10;10.50;99.90
42907;DHT22;28552;51.146;6.576;2023-04-29T01:51:12;10.40;99.90
42907;DHT22;28552;51.146;6.576;2023-04-29T01:54:12;10.50;99.90
42907;DHT22;28552;51.146;6.576;2023-04-29T01:57:13;10.50;99.90
42907;DHT22;28552;51.146;6.576;2023-04-29T02:00:14;10.50;99.90
42907;DHT22;28552;51.146;6.576;2023-04-29T02:03:14;10.50;99.90
42907;DHT22;28552;51.146;6.576;2023-04-29T02:06:16;10.50;99.90
42907;DHT22;28552;51.146;6.576;2023-04-29T02:09:17;10.50;99.90
42907;DHT22;28552;51.146;6.576;2023-04-29T02:12:18;10.50;99.90
42907;DHT22;28552;51.146;6.576;2023-04-29T02:15:19;10.50;99.90
42907;DHT22;28552;51.146;6.576;2023-04-29T02:18:20;10.50;99.90
42907;DHT22;28552;51.146;6.576;2023-04-29T02:21:21;10.50;99.90
42907;DHT22;28552;51.146;6.576;2023-04-29T02:24:21;10.40;99.90
42907;DHT22;28552;51.146;6.576;2023-04-29T02:27:22;10.30;99.90
42907;DHT22;28552;51.146;6.576;2023-04-29T02:30:22;10.30;99.90
42907;DHT22;28552;51.146;6.576;2023-04-29T02:33:23;10.20;99.90
42907;DHT22;28552;51.146;6.576;2023-04-29T02:36:23;10.20;99.90
42907;DHT22;28552;51.146;6.576;2023-04-29T02:39:24;10.20;99.90
42907;DHT22;28552;51.146;6.576;2023-04-29T02:42:25;10.20;99.90
42907;DHT22;28552;51.146;6.576;2023-04-29T02:45:25;10.10;99.90
42907;DHT22;28552;51.146;6.576;2023-04-29T02:48:26;10.10;99.90
42907;DHT22;28552;51.146;6.576;2023-04-29T02:51:27;10.10;99.90
42907;DHT22;28552;51.146;6.576;2023-04-29T02:54:28;10.10;99.90
42907;DHT22;28552;51.146;6.576;2023-04-29T02:57:28;10.00;99.90
42907;DHT22;28552;51.146;6.576;2023-04-29T03:00:29;9.90;99.90
42907;DHT22;28552;51.146;6.576;2023-04-29T03:03:29;9.90;99.90
42907;DHT22;28552;51.146;6.576;2023-04-29T03:06:30;9.90;99.90
42907;DHT22;28552;51.146;6.576;2023-04-29T03:09:30;9.80;99.90
42907;DHT22;28552;51.146;6.576;2023-04-29T03:12:31;9.80;99.90
42907;DHT22;28552;51.146;6.576;2023-04-29T03:15:32;9.90;99.90
42907;DHT22;28552;51.146;6.576;2023-04-29T03:18:32;9.90;99.90
42907;DHT22;28552;51.146;6.576;2023-04-29T03:21:33;9.90;99.90
42907;DHT22;28552;51.146;6.576;2023-04-29T03:24:33;9.90;99.90
42907;DHT22;28552;51.146;6.576;2023-04-29T03:27:34;9.90;99.90
42907;DHT22;28552;51.146;6.576;2023-04-29T03:30:34;9.90;99.90
42907;DHT22;28552;51.146;6.576;2023-04-29T03:33:35;9.80;99.90
42907;DHT22;28552;51.146;6.576;2023-04-29T03:36:36;9.80;99.90
42907;DHT22;28552;51.146;6.576;2023-04-29T03:39:37;9.80;99.90
42907;DHT22;28552;51.146;6.576;2023-04-29T03:42:37;9.70;99.90
42907;DHT22;28552;51.146;6.576;2023-04-29T03:45:38;9.70;99.90
42907;DHT22;28552;51.146;6.576;2023-04-29T03:48:38;9.60;99.90
42907;DHT22;28552;51.146;6.576;2023-04-29T03:51:39;9.60;99.90
42907;DHT22;28552;51.146;6.576;2023-04-29T03:54:40;9.60;99.90
42907;DHT22;28552;51.146;6.576;2023-04-29T03:57:41;9.60;99.90
42907;DHT22;28552;51.146;6.576;2023-04-29T04:00:41;9.50;99.90
42907;DHT22;28552;51.146;6.576;2023-04-29T04:03:42;9.40;99.90
42907;DHT22;28552;51.146;6.576;2023-04-29T04:06:42;9.30;99.90
42907;DHT22;28552;51.146;6.576;2023-04-29T04:09:44;9.30;99.90
42907;DHT22;28552;51.146;6.576;2023-04-29T04:12:45;9.30;99.90
42907;DHT22;28552;51.146;6.576;2023-04-29T04:15:50;9.20;99.90
42907;DHT22;28552;51.146;6.576;2023-04-29T04:18:51;9.20;99.90
42907;DHT22;28552;51.146;6.576;2023-04-29T04:21:51;9.10;99.90
42907;DHT22;28552;51.146;6.576;2023-04-29T04:24:55;9.10;99.90
42907;DHT22;28552;51.146;6.576;2023-04-29T04:27:56;9.10;99.90
42907;DHT22;28552;51.146;6.576;2023-04-29T04:30:56;9.10;99.90
42907;DHT22;28552;51.146;6.576;2023-04-29T04:33:57;9.10;99.90
42907;DHT22;28552;51.146;6.576;2023-04-29T04:36:59;9.10;99.90
42907;DHT22;28552;51.146;6.576;2023-04-29T04:39:59;9.10;99.90
42907;DHT22;28552;51.146;6.576;2023-04-29T04:43:00;9.10;99.90
42907;DHT22;28552;51.146;6.576;2023-04-29T04:46:09;9.10;99.90
42907;DHT22;28552;51.146;6.576;2023-04-29T04:49:10;9.00;99.90
42907;DHT22;28552;51.146;6.576;2023-04-29T04:52:11;9.10;99.90
42907;DHT22;28552;51.146;6.576;2023-04-29T04:55:12;9.10;99.90
42907;DHT22;28552;51.146;6.576;2023-04-29T04:58:12;9.10;99.90
42907;DHT22;28552;51.146;6.576;2023-04-29T05:01:13;9.10;99.90
42907;DHT22;28552;51.146;6.576;2023-04-29T05:04:13;9.10;99.90
42907;DHT22;28552;51.146;6.576;2023-04-29T05:07:14;9.20;99.90
42907;DHT22;28552;51.146;6.576;2023-04-29T05:10:15;9.20;99.90
42907;DHT22;28552;51.146;6.576;2023-04-29T05:13:16;9.20;99.90
42907;DHT22;28552;51.146;6.576;2023-04-29T05:16:16;9.20;99.90
42907;DHT22;28552;51.146;6.576;2023-04-29T05:19:18;9.30;99.90
42907;DHT22;28552;51.146;6.576;2023-04-29T05:22:19;9.30;99.90
42907;DHT22;28552;51.146;6.576;2023-04-29T05:25:19;9.30;99.90
42907;DHT22;28552;51.146;6.576;2023-04-29T05:28:20;9.30;99.90
42907;DHT22;28552;51.146;6.576;2023-04-29T05:31:20;9.40;99.90
42907;DHT22;28552;51.146;6.576;2023-04-29T05:34:21;9.40;99.90
42907;DHT22;28552;51.146;6.576;2023-04-29T05:37:21;9.40;99.90
42907;DHT22;28552;51.146;6.576;2023-04-29T05:40:22;9.50;99.90
42907;DHT22;28552;51.146;6.576;2023-04-29T05:43:23;9.50;99.90
42907;DHT22;28552;51.146;6.576;2023-04-29T05:46:23;9.50;99.90
42907;DHT22;28552;51.146;6.576;2023-04-29T05:49:24;9.40;99.90
42907;DHT22;28552;51.146;6.576;2023-04-29T05:52:24;9.40;99.90
42907;DHT22;28552;51.146;6.576;2023-04-29T05:55:25;9.50;99.90
42907;DHT22;28552;51.146;6.576;2023-04-29T05:58:26;9.50;99.90
42907;DHT22;28552;51.146;6.576;2023-04-29T06:01:26;9.50;99.90
42907;DHT22;28552;51.146;6.576;2023-04-29T06:04:27;9.60;99.90
42907;DHT22;28552;51.146;6.576;2023-04-29T06:07:27;9.60;99.90
42907;DHT22;28552;51.146;6.576;2023-04-29T06:10:28;9.60;99.90
42907;DHT22;28552;51.146;6.576;2023-04-29T06:13:28;9.70;99.90
42907;DHT22;28552;51.146;6.576;2023-04-29T06:16:30;9.80;99.90
42907;DHT22;28552;51.146;6.576;2023-04-29T06:19:31;9.80;99.90
42907;DHT22;28552;51.146;6.576;2023-04-29T06:22:33;9.90;99.90
42907;DHT22;28552;51.146;6.576;2023-04-29T06:25:33;10.00;99.90
42907;DHT22;28552;51.146;6.576;2023-04-29T06:28:34;10.00;99.90
42907;DHT22;28552;51.146;6.576;2023-04-29T06:31:34;10.10;99.90
42907;DHT22;28552;51.146;6.576;2023-04-29T06:34:35;10.10;99.90
42907;DHT22;28552;51.146;6.576;2023-04-29T06:37:36;10.10;99.90
42907;DHT22;28552;51.146;6.576;2023-04-29T06:40:36;10.20;99.90
42907;DHT22;28552;51.146;6.576;2023-04-29T06:43:37;10.10;99.90
42907;DHT22;28552;51.146;6.576;2023-04-29T06:46:37;10.10;99.90
42907;DHT22;28552;51.146;6.576;2023-04-29T06:49:38;10.10;99.90
42907;DHT22;28552;51.146;6.576;2023-04-29T06:52:39;10.00;99.90
42907;DHT22;28552;51.146;6.576;2023-04-29T06:55:39;10.00;99.90
42907;DHT22;28552;51.146;6.576;2023-04-29T06:58:40;10.00;99.90
42907;DHT22;28552;51.146;6.576;2023-04-29T07:01:41;10.00;99.90
42907;DHT22;28552;51.146;6.576;2023-04-29T07:04:41;10.00;99.90
42907;DHT22;28552;51.146;6.576;2023-04-29T07:07:42;10.00;99.90
42907;DHT22;28552;51.146;6.576;2023-04-29T07:10:42;10.00;99.90
42907;DHT22;28552;51.146;6.576;2023-04-29T07:13:43;10.00;99.90
42907;DHT22;28552;51.146;6.576;2023-04-29T07:16:43;10.00;99.90
42907;DHT22;28552;51.146;6.576;2023-04-29T07:19:44;10.00;99.90
42907;DHT22;28552;51.146;6.576;2023-04-29T07:22:45;10.10;99.90
42907;DHT22;28552;51.146;6.576;2023-04-29T07:25:45;10.10;99.90
42907;DHT22;28552;51.146;6.576;2023-04-29T07:28:47;10.10;99.90
42907;DHT22;28552;51.146;6.576;2023-04-29T07:31:48;10.10;99.90
42907;DHT22;28552;51.146;6.576;2023-04-29T07:34:48;10.10;99.90
42907;DHT22;28552;51.146;6.576;2023-04-29T07:37:49;10.20;99.90
42907;DHT22;28552;51.146;6.576;2023-04-29T07:40:49;10.20;99.90
42907;DHT22;28552;51.146;6.576;2023-04-29T07:43:50;10.20;99.90
42907;DHT22;28552;51.146;6.576;2023-04-29T07:46:50;10.30;99.90
42907;DHT22;28552;51.146;6.576;2023-04-29T07:49:51;10.40;99.90
42907;DHT22;28552;51.146;6.576;2023-04-29T07:52:52;10.50;99.90
42907;DHT22;28552;51.146;6.576;2023-04-29T07:55:54;10.60;99.90
42907;DHT22;28552;51.146;6.576;2023-04-29T07:58:55;10.60;99.90
42907;DHT22;28552;51.146;6.576;2023-04-29T08:01:56;10.60;99.90
42907;DHT22;28552;51.146;6.576;2023-04-29T08:04:56;10.70;99.90
42907;DHT22;28552;51.146;6.576;2023-04-29T08:07:57;10.70;99.90
42907;DHT22;28552;51.146;6.576;2023-04-29T08:10:57;10.80;99.90
42907;DHT22;28552;51.146;6.576;2023-04-29T08:13:58;10.80;99.90
42907;DHT22;28552;51.146;6.576;2023-04-29T08:16:59;10.80;99.90
42907;DHT22;28552;51.146;6.576;2023-04-29T08:20:00;10.90;99.90
42907;DHT22;28552;51.146;6.576;2023-04-29T08:23:00;11.00;99.90
42907;DHT22;28552;51.146;6.576;2023-04-29T08:26:01;11.20;99.90
42907;DHT22;28552;51.146;6.576;2023-04-29T08:29:03;11.50;99.90
42907;DHT22;28552;51.146;6.576;2023-04-29T08:32:04;11.70;99.90
42907;DHT22;28552;51.146;6.576;2023-04-29T08:35:05;11.80;99.90
42907;DHT22;28552;51.146;6.576;2023-04-29T08:38:07;11.90;99.90
42907;DHT22;28552;51.146;6.576;2023-04-29T08:41:08;11.90;99.90
42907;DHT22;28552;51.146;6.576;2023-04-29T08:44:09;12.00;99.90
42907;DHT22;28552;51.146;6.576;2023-04-29T08:47:10;12.00;99.90
42907;DHT22;28552;51.146;6.576;2023-04-29T08:50:10;12.20;99.90
42907;DHT22;28552;51.146;6.576;2023-04-29T08:53:12;12.40;99.90
42907;DHT22;28552;51.146;6.576;2023-04-29T08:56:15;12.40;99.90
42907;DHT22;28552;51.146;6.576;2023-04-29T08:59:21;12.40;99.90
42907;DHT22;28552;51.146;6.576;2023-04-29T09:02:24;12.20;99.90
42907;DHT22;28552;51.146;6.576;2023-04-29T09:05:25;11.90;99.90
42907;DHT22;28552;51.146;6.576;2023-04-29T09:08:26;11.70;99.90
42907;DHT22;28552;51.146;6.576;2023-04-29T09:11:28;11.60;99.90
42907;DHT22;28552;51.146;6.576;2023-04-29T09:14:29;11.50;99.90
42907;DHT22;28552;51.146;6.576;2023-04-29T09:17:48;11.40;99.90
42907;DHT22;28552;51.146;6.576;2023-04-29T09:20:49;11.30;99.90
42907;DHT22;28552;51.146;6.576;2023-04-29T09:23:52;11.30;99.90
42907;DHT22;28552;51.146;6.576;2023-04-29T09:26:53;11.30;99.90
42907;DHT22;28552;51.146;6.576;2023-04-29T09:30:02;11.30;99.90
42907;DHT22;28552;51.146;6.576;2023-04-29T09:33:04;11.20;99.90
42907;DHT22;28552;51.146;6.576;2023-04-29T09:36:06;11.20;99.90
42907;DHT22;28552;51.146;6.576;2023-04-29T09:39:08;11.20;99.90
42907;DHT22;28552;51.146;6.576;2023-04-29T09:42:12;11.20;99.90
42907;DHT22;28552;51.146;6.576;2023-04-29T09:45:32;11.20;99.90
42907;DHT22;28552;51.146;6.576;2023-04-29T09:48:33;11.20;99.90
42907;DHT22;28552;51.146;6.576;2023-04-29T09:51:52;11.10;99.90
42907;DHT22;28552;51.146;6.576;2023-04-29T09:55:03;11.00;99.90
42907;DHT22;28552;51.146;6.576;2023-04-29T09:58:04;10.90;99.90
42907;DHT22;28552;51.146;6.576;2023-04-29T10:01:06;10.90;99.90
42907;DHT22;28552;51.146;6.576;2023-04-29T10:04:07;11.00;99.90
42907;DHT22;28552;51.146;6.576;2023-04-29T10:07:13;11.00;99.90
42907;DHT22;28552;51.146;6.576;2023-04-29T10:10:15;11.10;99.90
42907;DHT22;28552;51.146;6.576;2023-04-29T10:13:16;11.10;99.90
42907;DHT22;28552;51.146;6.576;2023-04-29T10:16:27;11.20;99.90
42907;DHT22;28552;51.146;6.576;2023-04-29T10:19:46;11.30;99.90
42907;DHT22;28552;51.146;6.576;2023-04-29T10:22:51;11.40;99.90
42907;DHT22;28552;51.146;6.576;2023-04-29T10:25:52;11.40;99.90
42907;DHT22;28552;51.146;6.576;2023-04-29T10:28:55;11.30;99.90
42907;DHT22;28552;51.146;6.576;2023-04-29T10:31:56;11.30;99.90
42907;DHT22;28552;51.146;6.576;2023-04-29T10:34:58;11.30;99.90
42907;DHT22;28552;51.146;6.576;2023-04-29T10:38:00;11.30;99.90
42907;DHT22;28552;51.146;6.576;2023-04-29T10:41:09;11.30;99.90
42907;DHT22;28552;51.146;6.576;2023-04-29T10:44:14;11.40;99.90
42907;DHT22;28552;51.146;6.576;2023-04-29T10:47:18;11.50;99.90
42907;DHT22;28552;51.146;6.576;2023-04-29T10:50:19;11.60;99.90
42907;DHT22;28552;51.146;6.576;2023-04-29T10:53:20;11.60;99.90
42907;DHT22;28552;51.146;6.576;2023-04-29T10:56:21;11.60;99.90
42907;DHT22;28552;51.146;6.576;2023-04-29T11:02:42;11.50;99.90
42907;DHT22;28552;51.146;6.576;2023-04-29T11:05:44;11.60;99.90
42907;DHT22;28552;51.146;6.576;2023-04-29T11:08:45;11.70;99.90
42907;DHT22;28552;51.146;6.576;2023-04-29T11:15:03;11.80;99.90
42907;DHT22;28552;51.146;6.576;2023-04-29T11:18:10;11.80;99.90
42907;DHT22;28552;51.146;6.576;2023-04-29T11:21:11;11.90;99.90
42907;DHT22;28552;51.146;6.576;2023-04-29T11:24:12;12.10;99.90
42907;DHT22;28552;51.146;6.576;2023-04-29T11:27:16;12.20;99.90
42907;DHT22;28552;51.146;6.576;2023-04-29T11:30:17;12.30;99.90
42907;DHT22;28552;51.146;6.576;2023-04-29T11:33:19;12.50;99.90
42907;DHT22;28552;51.146;6.576;2023-04-29T11:36:19;12.80;99.90
42907;DHT22;28552;51.146;6.576;2023-04-29T11:39:20;13.00;99.90
42907;DHT22;28552;51.146;6.576;2023-04-29T11:42:21;13.10;99.90
42907;DHT22;28552;51.146;6.576;2023-04-29T11:45:22;13.20;99.90
42907;DHT22;28552;51.146;6.576;2023-04-29T11:48:24;13.20;99.90
42907;DHT22;28552;51.146;6.576;2023-04-29T11:51:25;13.20;99.90
42907;DHT22;28552;51.146;6.576;2023-04-29T11:54:27;13.40;99.90
42907;DHT22;28552;51.146;6.576;2023-04-29T11:57:28;13.50;99.90
42907;DHT22;28552;51.146;6.576;2023-04-29T12:00:29;13.60;99.90
42907;DHT22;28552;51.146;6.576;2023-04-29T12:03:32;13.60;99.90
42907;DHT22;28552;51.146;6.576;2023-04-29T12:06:33;13.60;99.90
42907;DHT22;28552;51.146;6.576;2023-04-29T12:09:41;13.70;99.90
42907;DHT22;28552;51.146;6.576;2023-04-29T12:12:43;13.90;99.90
42907;DHT22;28552;51.146;6.576;2023-04-29T12:15:45;14.10;99.90
42907;DHT22;28552;51.146;6.576;2023-04-29T12:18:47;14.30;99.90
42907;DHT22;28552;51.146;6.576;2023-04-29T12:21:48;14.40;99.90
42907;DHT22;28552;51.146;6.576;2023-04-29T12:24:51;14.50;99.90
42907;DHT22;28552;51.146;6.576;2023-04-29T12:27:58;14.60;99.90
42907;DHT22;28552;51.146;6.576;2023-04-29T12:30:59;14.90;99.90
42907;DHT22;28552;51.146;6.576;2023-04-29T12:34:02;15.00;99.90
42907;DHT22;28552;51.146;6.576;2023-04-29T12:37:03;15.10;99.90
42907;DHT22;28552;51.146;6.576;2023-04-29T12:40:05;15.20;99.90
42907;DHT22;28552;51.146;6.576;2023-04-29T12:43:06;15.50;99.90
42907;DHT22;28552;51.146;6.576;2023-04-29T12:46:09;15.70;99.90
42907;DHT22;28552;51.146;6.576;2023-04-29T12:49:11;15.90;99.90
42907;DHT22;28552;51.146;6.576;2023-04-29T12:52:12;16.00;99.90
42907;DHT22;28552;51.146;6.576;2023-04-29T12:55:13;16.10;99.90
42907;DHT22;28552;51.146;6.576;2023-04-29T12:58:13;16.30;99.90
42907;DHT22;28552;51.146;6.576;2023-04-29T13:01:14;16.40;99.90
42907;DHT22;28552;51.146;6.576;2023-04-29T13:04:15;16.30;99.90
42907;DHT22;28552;51.146;6.576;2023-04-29T13:07:16;16.10;99.90
42907;DHT22;28552;51.146;6.576;2023-04-29T13:10:17;16.10;99.90
42907;DHT22;28552;51.146;6.576;2023-04-29T13:13:18;16.10;99.90
42907;DHT22;28552;51.146;6.576;2023-04-29T13:16:18;16.10;99.90
42907;DHT22;28552;51.146;6.576;2023-04-29T13:19:19;16.20;99.90
42907;DHT22;28552;51.146;6.576;2023-04-29T13:22:20;16.30;99.90
42907;DHT22;28552;51.146;6.576;2023-04-29T13:25:21;16.40;99.90
42907;DHT22;28552;51.146;6.576;2023-04-29T13:28:21;16.50;99.90
42907;DHT22;28552;51.146;6.576;2023-04-29T13:31:23;16.70;99.90
42907;DHT22;28552;51.146;6.576;2023-04-29T13:34:23;16.90;99.90
42907;DHT22;28552;51.146;6.576;2023-04-29T13:37:24;16.80;99.90
42907;DHT22;28552;51.146;6.576;2023-04-29T13:40:24;16.50;99.90
42907;DHT22;28552;51.146;6.576;2023-04-29T13:43:25;16.20;99.90
42907;DHT22;28552;51.146;6.576;2023-04-29T13:46:26;16.10;99.90
42907;DHT22;28552;51.146;6.576;2023-04-29T13:49:27;15.80;99.90
42907;DHT22;28552;51.146;6.576;2023-04-29T13:52:28;15.40;99.90
42907;DHT22;28552;51.146;6.576;2023-04-29T13:55:30;15.10;99.90
42907;DHT22;28552;51.146;6.576;2023-04-29T13:58:33;14.80;99.90
42907;DHT22;28552;51.146;6.576;2023-04-29T14:01:34;14.60;99.90
42907;DHT22;28552;51.146;6.576;2023-04-29T14:04:34;14.50;99.90
42907;DHT22;28552;51.146;6.576;2023-04-29T14:07:36;14.40;99.90
42907;DHT22;28552;51.146;6.576;2023-04-29T14:10:36;14.30;99.90
42907;DHT22;28552;51.146;6.576;2023-04-29T14:13:37;14.20;99.90
42907;DHT22;28552;51.146;6.576;2023-04-29T14:16:37;14.20;99.90
42907;DHT22;28552;51.146;6.576;2023-04-29T14:19:38;14.00;99.90
42907;DHT22;28552;51.146;6.576;2023-04-29T14:22:38;14.10;99.90
42907;DHT22;28552;51.146;6.576;2023-04-29T14:25:39;14.00;99.90
42907;DHT22;28552;51.146;6.576;2023-04-29T14:28:39;14.00;99.90
42907;DHT22;28552;51.146;6.576;2023-04-29T14:31:40;14.10;99.90
42907;DHT22;28552;51.146;6.576;2023-04-29T14:34:41;14.20;99.90
42907;DHT22;28552;51.146;6.576;2023-04-29T14:37:41;14.40;99.90
42907;DHT22;28552;51.146;6.576;2023-04-29T14:40:42;14.40;99.90
42907;DHT22;28552;51.146;6.576;2023-04-29T14:43:43;14.50;99.90
42907;DHT22;28552;51.146;6.576;2023-04-29T14:46:43;14.50;99.90
42907;DHT22;28552;51.146;6.576;2023-04-29T14:49:44;14.60;99.90
42907;DHT22;28552;51.146;6.576;2023-04-29T14:52:44;14.70;99.90
42907;DHT22;28552;51.146;6.576;2023-04-29T14:55:45;14.70;99.90
42907;DHT22;28552;51.146;6.576;2023-04-29T14:58:45;14.80;99.90
42907;DHT22;28552;51.146;6.576;2023-04-29T15:01:46;14.70;99.90
42907;DHT22;28552;51.146;6.576;2023-04-29T15:04:46;14.70;99.90
42907;DHT22;28552;51.146;6.576;2023-04-29T15:07:48;14.70;99.90
42907;DHT22;28552;51.146;6.576;2023-04-29T15:10:48;14.80;99.90
42907;DHT22;28552;51.146;6.576;2023-04-29T15:13:49;14.90;99.90
42907;DHT22;28552;51.146;6.576;2023-04-29T15:16:49;15.00;99.90
42907;DHT22;28552;51.146;6.576;2023-04-29T15:19:50;15.20;99.90
42907;DHT22;28552;51.146;6.576;2023-04-29T15:22:51;15.40;99.90
42907;DHT22;28552;51.146;6.576;2023-04-29T15:25:51;15.40;99.90
42907;DHT22;28552;51.146;6.576;2023-04-29T15:28:52;15.50;99.90
42907;DHT22;28552;51.146;6.576;2023-04-29T15:31:53;15.50;99.90
42907;DHT22;28552;51.146;6.576;2023-04-29T15:34:54;15.50;99.90
42907;DHT22;28552;51.146;6.576;2023-04-29T15:37:54;15.40;99.90
42907;DHT22;28552;51.146;6.576;2023-04-29T15:40:57;15.40;99.90
42907;DHT22;28552;51.146;6.576;2023-04-29T15:44:00;15.60;99.90
42907;DHT22;28552;51.146;6.576;2023-04-29T15:47:00;15.70;99.90
42907;DHT22;28552;51.146;6.576;2023-04-29T15:50:01;15.70;99.90
42907;DHT22;28552;51.146;6.576;2023-04-29T15:53:01;15.70;99.90
42907;DHT22;28552;51.146;6.576;2023-04-29T15:56:02;15.50;99.90
42907;DHT22;28552;51.146;6.576;2023-04-29T15:59:02;15.40;99.90
42907;DHT22;28552;51.146;6.576;2023-04-29T16:02:03;15.20;99.90
42907;DHT22;28552;51.146;6.576;2023-04-29T16:05:09;15.10;99.90
42907;DHT22;28552;51.146;6.576;2023-04-29T16:08:10;15.10;99.90
42907;DHT22;28552;51.146;6.576;2023-04-29T16:11:10;15.00;99.90
42907;DHT22;28552;51.146;6.576;2023-04-29T16:14:11;15.00;99.90
42907;DHT22;28552;51.146;6.576;2023-04-29T16:17:11;15.00;99.90
42907;DHT22;28552;51.146;6.576;2023-04-29T16:20:12;15.10;99.90
42907;DHT22;28552;51.146;6.576;2023-04-29T16:23:13;15.20;99.90
42907;DHT22;28552;51.146;6.576;2023-04-29T16:26:13;15.30;99.90
42907;DHT22;28552;51.146;6.576;2023-04-29T16:29:14;15.40;99.90
42907;DHT22;28552;51.146;6.576;2023-04-29T16:32:14;15.40;99.90
42907;DHT22;28552;51.146;6.576;2023-04-29T16:35:15;15.40;99.90
42907;DHT22;28552;51.146;6.576;2023-04-29T16:38:15;15.40;99.90
42907;DHT22;28552;51.146;6.576;2023-04-29T16:41:16;15.30;99.90
42907;DHT22;28552;51.146;6.576;2023-04-29T16:44:17;15.30;99.90
42907;DHT22;28552;51.146;6.576;2023-04-29T16:47:18;15.30;99.90
42907;DHT22;28552;51.146;6.576;2023-04-29T16:50:19;15.40;99.90
42907;DHT22;28552;51.146;6.576;2023-04-29T16:53:20;15.40;99.90
42907;DHT22;28552;51.146;6.576;2023-04-29T16:56:20;15.60;99.90
42907;DHT22;28552;51.146;6.576;2023-04-29T16:59:21;15.70;99.90
42907;DHT22;28552;51.146;6.576;2023-04-29T17:02:22;15.80;99.90
42907;DHT22;28552;51.146;6.576;2023-04-29T17:05:23;15.70;99.90
42907;DHT22;28552;51.146;6.576;2023-04-29T17:08:25;15.50;99.90
42907;DHT22;28552;51.146;6.576;2023-04-29T17:11:26;15.50;99.90
42907;DHT22;28552;51.146;6.576;2023-04-29T17:14:27;15.40;99.90
42907;DHT22;28552;51.146;6.576;2023-04-29T17:17:27;15.20;99.90
42907;DHT22;28552;51.146;6.576;2023-04-29T17:20:28;15.10;99.90
42907;DHT22;28552;51.146;6.576;2023-04-29T17:23:28;15.00;99.90
42907;DHT22;28552;51.146;6.576;2023-04-29T17:26:29;14.80;99.90
42907;DHT22;28552;51.146;6.576;2023-04-29T17:29:30;14.70;99.90
42907;DHT22;28552;51.146;6.576;2023-04-29T17:32:31;14.60;99.90
42907;DHT22;28552;51.146;6.576;2023-04-29T17:35:38;14.60;99.90
42907;DHT22;28552;51.146;6.576;2023-04-29T17:38:38;14.80;99.90
42907;DHT22;28552;51.146;6.576;2023-04-29T17:41:39;14.70;99.90
42907;DHT22;28552;51.146;6.576;2023-04-29T17:44:40;14.70;99.90
42907;DHT22;28552;51.146;6.576;2023-04-29T17:47:41;14.60;99.90
42907;DHT22;28552;51.146;6.576;2023-04-29T17:50:41;14.50;99.90
42907;DHT22;28552;51.146;6.576;2023-04-29T17:53:42;14.50;99.90
42907;DHT22;28552;51.146;6.576;2023-04-29T17:56:42;14.50;99.90
42907;DHT22;28552;51.146;6.576;2023-04-29T17:59:43;14.50;99.90
42907;DHT22;28552;51.146;6.576;2023-04-29T18:02:43;14.40;99.90
42907;DHT22;28552;51.146;6.576;2023-04-29T18:05:44;14.30;99.90
42907;DHT22;28552;51.146;6.576;2023-04-29T18:08:45;14.30;99.90
42907;DHT22;28552;51.146;6.576;2023-04-29T18:11:46;14.20;99.90
42907;DHT22;28552;51.146;6.576;2023-04-29T18:14:46;14.10;99.90
42907;DHT22;28552;51.146;6.576;2023-04-29T18:17:48;14.10;99.90
42907;DHT22;28552;51.146;6.576;2023-04-29T18:20:49;14.00;99.90
42907;DHT22;28552;51.146;6.576;2023-04-29T18:23:50;14.00;99.90
42907;DHT22;28552;51.146;6.576;2023-04-29T18:26:50;13.90;99.90
42907;DHT22;28552;51.146;6.576;2023-04-29T18:29:51;13.80;99.90
42907;DHT22;28552;51.146;6.576;2023-04-29T18:32:51;13.80;99.90
42907;DHT22;28552;51.146;6.576;2023-04-29T18:35:52;13.70;99.90
42907;DHT22;28552;51.146;6.576;2023-04-29T18:38:53;13.70;99.90
42907;DHT22;28552;51.146;6.576;2023-04-29T18:41:54;13.50;99.90
42907;DHT22;28552;51.146;6.576;2023-04-29T18:44:55;13.40;99.90
42907;DHT22;28552;51.146;6.576;2023-04-29T18:47:55;13.40;99.90
42907;DHT22;28552;51.146;6.576;2023-04-29T18:50:56;13.30;99.90
42907;DHT22;28552;51.146;6.576;2023-04-29T18:54:03;13.30;99.90
42907;DHT22;28552;51.146;6.576;2023-04-29T18:57:03;13.20;99.90
42907;DHT22;28552;51.146;6.576;2023-04-29T19:00:04;13.10;99.90
42907;DHT22;28552;51.146;6.576;2023-04-29T19:03:05;13.00;99.90
42907;DHT22;28552;51.146;6.576;2023-04-29T19:06:06;12.90;99.90
42907;DHT22;28552;51.146;6.576;2023-04-29T19:09:06;12.80;99.90
42907;DHT22;28552;51.146;6.576;2023-04-29T19:12:07;12.70;99.90
42907;DHT22;28552;51.146;6.576;2023-04-29T19:15:09;12.70;99.90
42907;DHT22;28552;51.146;6.576;2023-04-29T19:18:09;12.60;99.90
42907;DHT22;28552;51.146;6.576;2023-04-29T19:21:10;12.60;99.90
42907;DHT22;28552;51.146;6.576;2023-04-29T19:24:13;12.50;99.90
42907;DHT22;28552;51.146;6.576;2023-04-29T19:27:14;12.50;99.90